Time;durP1;ratioP1;P1;durP2;ratioP2;P2;SDS_P1;SDS_P2;PMS_P1;PMS_P2;Temp;Humidity;BMP_temperature;BMP_pressure;BME280_temperature;BME280_humidity;BME280_pressure;Samples;Min_cycle;Max_cycle;Signal;HPM_P1;HPM_P2
2023/08/24 00:00:19;;;;;;;6.33;5.70;;;19.40;99.90;;;;;;5114465;28;20448;-55
2023/08/24 00:02:45;;;;;;;9.87;5.67;;;19.40;99.90;;;;;;5113887;28;20259;-53
2023/08/24 00:05:10;;;;;;;14.70;8.17;;;19.50;99.90;;;;;;5113884;28;20409;-55
2023/08/24 00:07:36;;;;;;;10.30;7.70;;;19.50;1.00;;;;;;5114330;28;20209;-55
2023/08/24 00:10:03;;;;;;;13.90;7.07;;;19.40;1.00;;;;;;5114190;28;20184;-55
2023/08/24 00:12:30;;;;;;;7.50;5.50;;;19.20;99.90;;;;;;5113776;28;20674;-55
2023/08/24 00:14:55;;;;;;;8.57;5.73;;;19.20;1.00;;;;;;5114287;28;20405;-55
2023/08/24 00:17:22;;;;;;;10.63;5.90;;;19.10;1.00;;;;;;5113796;28;20564;-55
2023/08/24 00:19:48;;;;;;;13.50;7.83;;;19.10;1.00;;;;;;5114173;28;20270;-55
2023/08/24 00:22:14;;;;;;;12.67;5.73;;;19.00;1.00;;;;;;5113633;28;20564;-55
2023/08/24 00:24:39;;;;;;;11.03;5.80;;;19.10;1.00;;;;;;5113964;28;20180;-55
2023/08/24 00:27:05;;;;;;;14.10;7.47;;;19.10;1.00;;;;;;5113968;28;20273;-55
2023/08/24 00:29:31;;;;;;;16.20;6.43;;;19.20;99.90;;;;;;5113518;28;20181;-55
2023/08/24 00:31:57;;;;;;;13.13;7.07;;;19.10;99.90;;;;;;5113904;28;20180;-55
2023/08/24 00:34:23;;;;;;;15.57;7.70;;;19.00;99.90;;;;;;5113498;28;20268;-55
2023/08/24 00:36:48;;;;;;;13.53;8.83;;;19.00;1.00;;;;;;5113700;28;20542;-55
2023/08/24 00:39:15;;;;;;;18.00;9.10;;;19.00;1.00;;;;;;5113722;28;20582;-55
2023/08/24 00:41:41;;;;;;;9.10;6.00;;;19.00;1.00;;;;;;5113397;28;20804;-55
2023/08/24 00:44:07;;;;;;;17.33;9.30;;;19.00;1.00;;;;;;5113861;28;20441;-54
2023/08/24 00:46:34;;;;;;;10.40;6.40;;;18.90;99.90;;;;;;5113689;28;20659;-55
2023/08/24 00:49:00;;;;;;;12.53;8.83;;;18.90;1.00;;;;;;5117817;28;20425;-54
2023/08/24 00:51:25;;;;;;;13.87;8.67;;;18.90;1.00;;;;;;5117598;28;20405;-54
2023/08/24 00:53:52;;;;;;;10.33;6.37;;;18.90;1.00;;;;;;5117661;28;20416;-55
2023/08/24 00:56:20;;;;;;;12.53;5.90;;;18.80;34.80;;;;;;5117676;28;20207;-55
2023/08/24 00:58:47;;;;;;;16.70;8.07;;;18.80;1.00;;;;;;5117750;28;20413;-55
2023/08/24 01:01:13;;;;;;;7.60;6.07;;;18.90;1.00;;;;;;5117567;28;20897;-54
2023/08/24 01:03:39;;;;;;;14.53;7.40;;;18.90;1.00;;;;;;5117538;28;20470;-55
2023/08/24 01:06:04;;;;;;;8.07;6.43;;;18.90;99.90;;;;;;5117422;28;20240;-55
2023/08/24 01:08:30;;;;;;;15.83;7.57;;;18.90;99.90;;;;;;5117345;28;20183;-55
2023/08/24 01:11:17;;;;;;;20.10;6.80;;;18.80;99.90;;;;;;5117226;28;20172;-55
2023/08/24 01:13:52;;;;;;;14.80;6.43;;;18.80;1.00;;;;;;5117483;28;20171;-54
2023/08/24 01:16:27;;;;;;;12.03;6.63;;;18.70;1.00;;;;;;5117193;28;20846;-55
2023/08/24 01:18:55;;;;;;;11.67;7.03;;;18.70;21.70;;;;;;5117284;28;20407;-55
2023/08/24 01:21:21;;;;;;;10.83;6.17;;;18.70;34.10;;;;;;5116985;28;20419;-55
2023/08/24 01:24:03;;;;;;;8.97;6.07;;;18.70;20.60;;;;;;5117394;28;20405;-56
2023/08/24 01:26:29;;;;;;;9.13;6.10;;;18.80;1.00;;;;;;5117340;28;20407;-55
2023/08/24 01:28:56;;;;;;;7.70;6.00;;;18.80;1.00;;;;;;5116902;28;20408;-55
2023/08/24 01:31:22;;;;;;;13.03;6.27;;;18.80;1.00;;;;;;5116950;28;20948;-55
2023/08/24 01:33:47;;;;;;;9.23;6.00;;;18.90;1.00;;;;;;5117280;28;20412;-55
2023/08/24 01:36:16;;;;;;;11.10;6.53;;;18.80;99.90;;;;;;5117069;28;20597;-55
2023/08/24 01:38:42;;;;;;;10.60;5.23;;;18.80;99.90;;;;;;5117076;28;20219;-55
2023/08/24 01:41:26;;;;;;;11.43;6.00;;;18.70;1.00;;;;;;5117178;28;20952;-56
2023/08/24 01:43:54;;;;;;;10.93;6.00;;;18.60;75.30;;;;;;5117025;28;20180;-55
2023/08/24 01:46:22;;;;;;;7.97;5.60;;;18.70;18.50;;;;;;5116749;28;20838;-55
2023/08/24 01:48:48;;;;;;;8.13;5.57;;;18.70;1.00;;;;;;5116713;28;20422;-55
2023/08/24 01:51:15;;;;;;;8.50;5.43;;;18.70;1.00;;;;;;5116498;28;20892;-56
2023/08/24 01:53:41;;;;;;;9.37;5.37;;;18.70;99.90;;;;;;5116657;28;20419;-56
2023/08/24 01:56:16;;;;;;;15.53;5.37;;;18.60;1.00;;;;;;5116555;28;20481;-56
2023/08/24 01:58:41;;;;;;;7.60;4.50;;;18.60;1.00;;;;;;5115578;28;20416;-55
2023/08/24 02:01:08;;;;;;;8.50;5.53;;;18.60;1.00;;;;;;5116913;28;20762;-55
2023/08/24 02:03:33;;;;;;;9.90;5.60;;;18.60;1.00;;;;;;5116624;28;20182;-55
2023/08/24 02:05:59;;;;;;;9.97;4.80;;;18.60;1.00;;;;;;5116190;28;20478;-55
2023/08/24 02:08:25;;;;;;;9.03;5.13;;;18.60;1.00;;;;;;5116275;28;20211;-55
2023/08/24 02:10:50;;;;;;;5.70;5.10;;;18.60;99.90;;;;;;5116562;28;20217;-56
2023/08/24 02:13:16;;;;;;;8.63;4.73;;;18.50;78.00;;;;;;5116345;28;20531;-55
2023/08/24 02:15:41;;;;;;;6.53;4.43;;;18.40;1.00;;;;;;5116291;28;20189;-55
2023/08/24 02:18:07;;;;;;;7.70;5.10;;;18.40;1.00;;;;;;5116074;28;20273;-55
2023/08/24 02:20:37;;;;;;;8.00;4.47;;;18.40;1.00;;;;;;5116180;28;20189;-55
2023/08/24 02:23:03;;;;;;;7.97;4.60;;;18.50;1.00;;;;;;5115848;28;20523;-55
2023/08/24 02:25:29;;;;;;;7.07;4.43;;;18.50;1.00;;;;;;5115521;28;20450;-55
2023/08/24 02:27:55;;;;;;;10.17;5.10;;;18.60;99.90;;;;;;5116039;28;20420;-55
2023/08/24 02:30:20;;;;;;;7.30;4.83;;;18.50;99.90;;;;;;5116203;28;20622;-55
2023/08/24 02:32:46;;;;;;;8.30;5.40;;;18.40;1.00;;;;;;5116041;28;20254;-56
2023/08/24 02:35:11;;;;;;;9.00;5.27;;;18.40;1.00;;;;;;5115858;28;20532;-55
2023/08/24 02:37:37;;;;;;;8.63;4.50;;;18.30;1.00;;;;;;5115710;28;20207;-56
2023/08/24 02:40:03;;;;;;;15.63;5.70;;;18.20;99.90;;;;;;5116021;28;20178;-54
2023/08/24 02:42:33;;;;;;;8.03;4.20;;;18.20;99.90;;;;;;5115782;28;20177;-55
2023/08/24 02:44:58;;;;;;;7.20;4.50;;;18.20;99.90;;;;;;5115465;28;20415;-56
2023/08/24 02:47:24;;;;;;;8.97;5.40;;;18.30;99.90;;;;;;5115799;28;20415;-55
2023/08/24 02:49:50;;;;;;;8.33;5.50;;;18.20;1.00;;;;;;5115759;28;20644;-55
2023/08/24 02:52:15;;;;;;;6.83;4.73;;;18.30;1.00;;;;;;5115472;28;20206;-54
2023/08/24 02:54:41;;;;;;;11.27;6.37;;;18.40;1.00;;;;;;5115919;28;20549;-55
2023/08/24 02:57:07;;;;;;;11.40;6.10;;;18.30;99.90;;;;;;5115243;28;20255;-56
2023/08/24 02:59:32;;;;;;;8.30;5.60;;;18.40;99.90;;;;;;5115558;28;20435;-55
2023/08/24 03:01:58;;;;;;;6.50;5.13;;;18.30;1.00;;;;;;5115207;28;20187;-55
2023/08/24 03:04:24;;;;;;;7.53;5.30;;;18.30;99.90;;;;;;5115033;28;20543;-55
2023/08/24 03:06:49;;;;;;;7.20;4.60;;;18.30;99.90;;;;;;5115275;28;20214;-55
2023/08/24 03:09:24;;;;;;;7.63;5.27;;;18.30;99.90;;;;;;5115379;28;20236;-55
2023/08/24 03:11:49;;;;;;;6.57;4.97;;;18.30;99.90;;;;;;5114724;28;20247;-55
2023/08/24 03:14:15;;;;;;;9.80;5.10;;;18.30;99.90;;;;;;5115281;28;20440;-56
2023/08/24 03:16:41;;;;;;;7.07;4.87;;;18.30;99.90;;;;;;5114920;28;20219;-55
2023/08/24 03:19:07;;;;;;;6.93;5.07;;;18.30;99.90;;;;;;5115556;28;20219;-55
2023/08/24 03:21:32;;;;;;;7.10;5.13;;;18.30;99.90;;;;;;5114354;28;20276;-55
2023/08/24 03:23:58;;;;;;;8.13;6.20;;;18.30;99.90;;;;;;5114855;28;20487;-55
2023/08/24 03:26:24;;;;;;;10.57;5.50;;;18.30;99.90;;;;;;5115010;28;20193;-55
2023/08/24 03:28:50;;;;;;;9.37;5.60;;;18.20;99.90;;;;;;5114266;28;20186;-54
2023/08/24 03:31:16;;;;;;;10.43;6.23;;;18.20;99.90;;;;;;5114986;28;20179;-54
2023/08/24 03:33:41;;;;;;;6.93;5.03;;;18.20;99.90;;;;;;5114608;28;20415;-55
2023/08/24 03:36:07;;;;;;;8.03;5.10;;;18.20;99.90;;;;;;5096491;28;20428;-55
2023/08/24 03:38:32;;;;;;;9.27;6.10;;;18.20;99.90;;;;;;5114576;28;20194;-56
2023/08/24 03:41:03;;;;;;;6.67;5.23;;;18.20;99.90;;;;;;5114764;28;20194;-56
2023/08/24 03:43:32;;;;;;;10.27;6.20;;;18.20;99.90;;;;;;5114580;28;20682;-55
2023/08/24 03:45:57;;;;;;;7.17;5.37;;;18.20;99.90;;;;;;5114458;28;20421;-56
2023/08/24 03:48:23;;;;;;;7.47;5.37;;;18.10;99.90;;;;;;5114617;28;20935;-55
2023/08/24 03:50:48;;;;;;;9.97;5.80;;;18.00;99.90;;;;;;5114345;28;20180;-54
2023/08/24 03:53:14;;;;;;;9.17;6.93;;;18.00;1.00;;;;;;5114608;28;20178;-55
2023/08/24 03:55:39;;;;;;;8.30;5.47;;;18.00;1.00;;;;;;5114392;28;20939;-55
2023/08/24 03:58:05;;;;;;;15.33;5.90;;;18.00;1.00;;;;;;5114303;28;20202;-55
2023/08/24 04:00:31;;;;;;;8.93;5.20;;;18.10;99.90;;;;;;5114178;28;20210;-55
2023/08/24 04:02:56;;;;;;;9.07;6.10;;;18.10;99.90;;;;;;5114336;28;20174;-56
2023/08/24 04:05:22;;;;;;;8.57;5.23;;;18.10;99.90;;;;;;5114373;28;20534;-56
2023/08/24 04:07:47;;;;;;;6.33;5.13;;;18.10;99.90;;;;;;5114109;28;20260;-54
2023/08/24 04:10:13;;;;;;;10.33;6.10;;;18.10;99.90;;;;;;5114121;28;20218;-56
2023/08/24 04:12:38;;;;;;;8.00;5.90;;;18.00;99.90;;;;;;5113785;28;20186;-55
2023/08/24 04:15:05;;;;;;;8.63;6.27;;;18.10;99.90;;;;;;5113823;28;20700;-55
2023/08/24 04:17:30;;;;;;;7.30;5.67;;;18.00;99.90;;;;;;5114053;28;20197;-55
2023/08/24 04:19:56;;;;;;;8.63;6.57;;;18.00;99.90;;;;;;5113648;28;20471;-56
2023/08/24 04:22:21;;;;;;;9.37;6.70;;;18.00;99.90;;;;;;5112964;28;20230;-56
2023/08/24 04:24:47;;;;;;;10.23;6.30;;;18.00;99.90;;;;;;5113708;28;20178;-55
2023/08/24 04:27:12;;;;;;;9.83;6.77;;;18.00;99.90;;;;;;5113780;28;20175;-55
2023/08/24 04:29:38;;;;;;;7.57;6.00;;;18.00;99.90;;;;;;5113633;28;20188;-55
2023/08/24 04:32:04;;;;;;;10.10;6.53;;;18.00;99.90;;;;;;5113816;28;20183;-55
2023/08/24 04:34:29;;;;;;;8.97;5.87;;;18.00;99.90;;;;;;5113848;28;20637;-56
2023/08/24 04:36:55;;;;;;;7.93;5.70;;;18.00;99.90;;;;;;5113942;28;20459;-56
2023/08/24 04:39:21;;;;;;;8.47;7.00;;;18.00;89.10;;;;;;5113864;28;20185;-55
2023/08/24 04:41:46;;;;;;;8.17;6.37;;;18.00;1.00;;;;;;5113501;28;20186;-55
2023/08/24 04:44:12;;;;;;;7.80;7.00;;;17.90;99.90;;;;;;5113528;28;20182;-55
2023/08/24 04:46:37;;;;;;;7.60;5.90;;;17.80;99.90;;;;;;5095321;28;20272;-56
2023/08/24 04:49:03;;;;;;;10.17;7.23;;;17.70;99.90;;;;;;5113369;28;20175;-58
2023/08/24 04:51:29;;;;;;;11.50;6.70;;;17.80;99.90;;;;;;5113572;28;20179;-56
2023/08/24 04:53:54;;;;;;;14.17;8.47;;;17.80;1.00;;;;;;5113459;28;20423;-54
2023/08/24 04:56:20;;;;;;;11.70;7.77;;;17.80;1.00;;;;;;5113350;28;20687;-55
2023/08/24 04:58:56;;;;;;;7.63;6.77;;;17.70;1.00;;;;;;5113130;28;20234;-55
2023/08/24 05:01:23;;;;;;;6.83;5.93;;;17.70;1.00;;;;;;5113681;28;20698;-55
2023/08/24 05:03:48;;;;;;;7.27;6.30;;;17.80;99.90;;;;;;5113522;28;20405;-57
2023/08/24 05:06:14;;;;;;;9.40;6.20;;;17.90;1.00;;;;;;5113430;28;20940;-55
2023/08/24 05:08:39;;;;;;;6.20;5.43;;;18.00;99.90;;;;;;5113177;28;20254;-56
2023/08/24 05:11:19;;;;;;;8.00;6.63;;;18.10;99.90;;;;;;5113256;28;20173;-56
2023/08/24 05:13:45;;;;;;;8.43;6.43;;;18.10;99.90;;;;;;5113445;28;20243;-54
2023/08/24 05:16:12;;;;;;;6.57;5.83;;;18.20;1.00;;;;;;5113437;28;20403;-55
2023/08/24 05:18:37;;;;;;;8.10;5.57;;;18.20;1.00;;;;;;5113667;28;20428;-56
2023/08/24 05:21:03;;;;;;;7.67;6.33;;;18.30;1.00;;;;;;5113436;28;20407;-56
2023/08/24 05:23:32;;;;;;;8.57;5.47;;;18.20;1.00;;;;;;5113533;28;20298;-55
2023/08/24 05:25:59;;;;;;;8.57;6.03;;;18.30;1.00;;;;;;5113525;28;20422;-56
2023/08/24 05:28:26;;;;;;;10.60;6.63;;;18.20;1.00;;;;;;5113375;28;20419;-56
2023/08/24 05:30:52;;;;;;;8.13;6.00;;;18.20;1.00;;;;;;5113541;28;20827;-55
2023/08/24 05:33:19;;;;;;;7.50;5.57;;;18.20;1.00;;;;;;5112929;28;20424;-56
2023/08/24 05:35:45;;;;;;;7.67;5.90;;;18.20;1.00;;;;;;5116445;28;20472;-55
2023/08/24 05:38:12;;;;;;;7.73;5.90;;;18.30;1.00;;;;;;5116757;28;20455;-55
2023/08/24 05:40:38;;;;;;;10.10;6.53;;;18.30;1.00;;;;;;5116933;28;20637;-55
2023/08/24 05:43:04;;;;;;;7.43;5.37;;;18.30;1.00;;;;;;5116615;28;20419;-55
2023/08/24 05:45:30;;;;;;;7.90;5.33;;;18.40;1.00;;;;;;5116809;28;20418;-56
2023/08/24 05:47:55;;;;;;;14.80;7.47;;;18.50;1.00;;;;;;5116741;28;20186;-55
2023/08/24 05:50:21;;;;;;;6.67;5.30;;;18.50;1.00;;;;;;5116617;28;20263;-56
2023/08/24 05:52:47;;;;;;;6.03;5.43;;;18.50;1.00;;;;;;5116781;28;20269;-55
2023/08/24 05:55:12;;;;;;;7.53;5.10;;;18.60;1.00;;;;;;5116866;28;20527;-55
2023/08/24 05:57:38;;;;;;;10.53;5.63;;;18.60;1.00;;;;;;5116449;28;20278;-56
2023/08/24 06:00:09;;;;;;;8.77;4.67;;;18.80;1.00;;;;;;5116637;28;20194;-55
2023/08/24 06:02:36;;;;;;;6.57;4.40;;;19.00;1.00;;;;;;5116221;28;20249;-55
2023/08/24 06:05:02;;;;;;;5.80;4.27;;;19.10;1.00;;;;;;5098237;28;20442;-56
2023/08/24 06:07:28;;;;;;;7.40;5.30;;;19.30;99.90;;;;;;5098071;28;20434;-56
2023/08/24 06:09:54;;;;;;;9.73;4.70;;;19.50;99.90;;;;;;5116339;28;20772;-56
2023/08/24 06:12:19;;;;;;;6.07;4.27;;;19.60;99.90;;;;;;5116630;28;20172;-56
2023/08/24 06:14:45;;;;;;;6.50;3.97;;;19.70;99.90;;;;;;5116239;28;20233;-56
2023/08/24 06:17:10;;;;;;;6.00;3.80;;;19.80;99.90;;;;;;5116469;28;20207;-55
2023/08/24 06:19:36;;;;;;;10.63;4.30;;;20.00;99.90;;;;;;5116483;28;20533;-55
2023/08/24 06:22:01;;;;;;;5.30;3.70;;;20.10;99.90;;;;;;5115811;28;21001;-55
2023/08/24 06:24:27;;;;;;;4.20;3.00;;;20.20;99.90;;;;;;5115805;28;20585;-56
2023/08/24 06:26:53;;;;;;;5.60;3.47;;;20.30;99.90;;;;;;5116010;28;20184;-56
2023/08/24 06:29:19;;;;;;;2.93;2.47;;;20.40;99.90;;;;;;5097667;28;20249;-55
2023/08/24 06:31:44;;;;;;;5.60;2.70;;;20.50;99.90;;;;;;5097705;28;20180;-57
2023/08/24 06:34:10;;;;;;;4.20;3.07;;;20.50;9.70;;;;;;5116016;28;20176;-56
2023/08/24 06:36:35;;;;;;;3.70;2.27;;;20.50;21.70;;;;;;5115855;28;20213;-56
2023/08/24 06:39:04;;;;;;;2.90;2.50;;;20.70;21.20;;;;;;5116196;28;20195;-55
2023/08/24 06:41:33;;;;;;;6.53;2.23;;;20.90;1.00;;;;;;5115527;28;20289;-56
2023/08/24 06:43:58;;;;;;;11.23;2.43;;;21.00;1.00;;;;;;5115465;28;20494;-56
2023/08/24 06:46:24;;;;;;;2.40;2.20;;;21.20;1.00;;;;;;5115458;28;20552;-56
2023/08/24 06:48:50;;;;;;;7.20;2.63;;;21.40;1.00;;;;;;5115496;28;20181;-56
2023/08/24 06:51:16;;;;;;;5.97;2.90;;;21.60;1.00;;;;;;5115654;28;20259;-56
2023/08/24 06:53:42;;;;;;;4.20;3.00;;;21.80;1.00;;;;;;5115355;28;20183;-56
2023/08/24 06:56:08;;;;;;;5.33;3.03;;;22.00;1.00;;;;;;5115458;28;20898;-56
2023/08/24 06:58:34;;;;;;;6.57;3.47;;;22.20;1.00;;;;;;5115289;28;20497;-56
2023/08/24 07:01:00;;;;;;;6.83;3.00;;;22.10;1.00;;;;;;5115389;28;20513;-56
2023/08/24 07:03:25;;;;;;;3.70;2.37;;;21.90;1.00;;;;;;5115650;28;20173;-56
2023/08/24 07:05:51;;;;;;;10.27;3.43;;;21.90;1.00;;;;;;5115224;28;20200;-56
2023/08/24 07:08:16;;;;;;;8.77;3.20;;;22.00;1.00;;;;;;5115538;28;20573;-56
2023/08/24 07:10:43;;;;;;;3.67;2.60;;;22.10;1.00;;;;;;5114861;28;20180;-56
2023/08/24 07:13:09;;;;;;;4.73;2.10;;;22.40;1.00;;;;;;5114867;28;20185;-56
2023/08/24 07:15:35;;;;;;;4.40;2.20;;;22.50;1.00;;;;;;5114992;28;20929;-56
2023/08/24 07:18:05;;;;;;;7.33;2.77;;;22.70;1.00;;;;;;5114675;28;20462;-56
2023/08/24 07:20:32;;;;;;;3.27;2.10;;;22.90;1.00;;;;;;5115003;28;20429;-56
2023/08/24 07:22:58;;;;;;;6.07;2.10;;;23.20;1.00;;;;;;5114382;28;20462;-56
2023/08/24 07:25:23;;;;;;;3.23;2.10;;;23.30;1.00;;;;;;5114814;28;20430;-56
2023/08/24 07:27:49;;;;;;;5.67;2.17;;;23.50;1.00;;;;;;5096434;28;20989;-55
2023/08/24 07:30:15;;;;;;;4.37;1.97;;;23.40;1.00;;;;;;5114898;28;20184;-55
2023/08/24 07:32:41;;;;;;;8.50;2.57;;;23.50;1.00;;;;;;5114928;28;20181;-55
2023/08/24 07:35:07;;;;;;;4.90;2.30;;;23.70;1.00;;;;;;5114778;28;20199;-56
2023/08/24 07:37:33;;;;;;;3.93;2.03;;;23.70;1.00;;;;;;5114560;28;20469;-56
2023/08/24 07:39:59;;;;;;;5.23;1.77;;;24.00;1.00;;;;;;5096222;28;20418;-56
2023/08/24 07:42:25;;;;;;;6.10;2.20;;;24.20;1.00;;;;;;5114658;28;20177;-55
2023/08/24 07:44:50;;;;;;;3.87;2.57;;;24.40;1.00;;;;;;5096253;28;20204;-54
2023/08/24 07:47:16;;;;;;;2.77;2.33;;;24.70;1.00;;;;;;5114313;28;20189;-55
2023/08/24 07:49:44;;;;;;;4.70;2.30;;;24.90;1.00;;;;;;5114501;28;20271;-55
2023/08/24 07:52:11;;;;;;;9.63;2.60;;;25.20;1.00;;;;;;5095945;28;20505;-54
2023/08/24 07:54:37;;;;;;;3.10;2.20;;;25.40;1.00;;;;;;5114089;28;20430;-54
2023/08/24 07:57:03;;;;;;;5.67;2.80;;;25.60;1.00;;;;;;5113210;28;20454;-54
2023/08/24 07:59:28;;;;;;;6.63;2.40;;;25.70;1.00;;;;;;5114359;28;20265;-54
2023/08/24 08:01:54;;;;;;;3.80;2.33;;;25.80;1.00;;;;;;5095868;28;20193;-54
2023/08/24 08:04:20;;;;;;;6.37;2.50;;;26.00;1.00;;;;;;5114117;28;20180;-54
2023/08/24 08:06:45;;;;;;;5.50;2.70;;;26.20;1.00;;;;;;5092883;28;20177;-54
2023/08/24 08:09:11;;;;;;;4.10;2.23;;;26.30;1.00;;;;;;5113458;28;20187;-53
2023/08/24 08:11:36;;;;;;;8.10;2.80;;;26.60;1.00;;;;;;5114085;28;20172;-54
2023/08/24 08:14:02;;;;;;;4.27;2.63;;;26.80;1.00;;;;;;5114192;28;20693;-55
2023/08/24 08:16:28;;;;;;;4.63;2.70;;;27.00;1.00;;;;;;5114034;28;20201;-54
2023/08/24 08:18:53;;;;;;;5.20;2.47;;;26.90;1.00;;;;;;5113669;28;20551;-55
2023/08/24 08:21:19;;;;;;;5.90;3.43;;;27.00;1.00;;;;;;5113511;28;20194;-54
2023/08/24 08:23:45;;;;;;;8.43;3.50;;;27.10;1.00;;;;;;5113708;28;20306;-52
2023/08/24 08:26:13;;;;;;;5.20;3.00;;;27.10;1.00;;;;;;5113734;28;20259;-53
2023/08/24 08:28:39;;;;;;;6.70;2.97;;;27.10;1.00;;;;;;5113546;28;20509;-55
2023/08/24 08:31:05;;;;;;;6.00;2.67;;;27.20;1.00;;;;;;5113880;28;20490;-54
2023/08/24 08:33:31;;;;;;;6.30;3.43;;;27.10;1.00;;;;;;5114102;28;20185;-55
2023/08/24 08:35:57;;;;;;;6.33;3.30;;;27.30;1.00;;;;;;5114076;28;20407;-53
2023/08/24 08:38:25;;;;;;;7.53;3.20;;;27.30;1.00;;;;;;5113324;28;20208;-52
2023/08/24 08:40:56;;;;;;;8.53;2.60;;;27.40;1.00;;;;;;5113698;28;20187;-51
2023/08/24 08:43:22;;;;;;;5.00;2.60;;;27.40;1.00;;;;;;5113998;28;20753;-52
2023/08/24 08:45:51;;;;;;;5.27;2.83;;;27.90;1.00;;;;;;5113958;28;20407;-52
2023/08/24 08:48:17;;;;;;;5.50;3.20;;;28.30;1.00;;;;;;5113641;28;20423;-53
2023/08/24 08:50:43;;;;;;;7.53;2.80;;;28.50;1.00;;;;;;5113590;28;20467;-51
2023/08/24 08:53:08;;;;;;;7.93;3.47;;;28.30;1.00;;;;;;5113490;28;20813;-52
2023/08/24 08:55:34;;;;;;;6.47;3.47;;;28.20;1.00;;;;;;5113456;28;20177;-53
2023/08/24 08:58:02;;;;;;;6.73;3.60;;;28.30;1.00;;;;;;5113603;28;20212;-56
2023/08/24 09:00:28;;;;;;;5.53;3.20;;;28.40;1.00;;;;;;5113795;28;20414;-52
2023/08/24 09:02:55;;;;;;;8.93;3.47;;;28.50;1.00;;;;;;5113002;28;20902;-54
2023/08/24 09:05:20;;;;;;;8.03;3.30;;;28.60;1.00;;;;;;5113421;28;20411;-54
2023/08/24 09:07:47;;;;;;;6.30;3.30;;;28.60;1.00;;;;;;5113510;28;20500;-53
2023/08/24 09:10:13;;;;;;;8.17;3.20;;;28.70;1.00;;;;;;5117657;28;20177;-54
2023/08/24 09:12:39;;;;;;;8.30;3.30;;;29.10;1.00;;;;;;5117328;28;20414;-55
2023/08/24 09:15:06;;;;;;;4.37;2.67;;;29.00;1.00;;;;;;5117119;28;20295;-55
2023/08/24 09:17:33;;;;;;;8.67;3.03;;;29.10;1.00;;;;;;5117209;28;20327;-53
2023/08/24 09:20:00;;;;;;;7.23;3.30;;;29.10;1.00;;;;;;5117205;28;20921;-56
2023/08/24 09:22:25;;;;;;;5.47;3.23;;;29.00;1.00;;;;;;5116888;28;20479;-57
2023/08/24 09:24:51;;;;;;;12.37;3.70;;;28.60;1.00;;;;;;5117023;28;20415;-55
2023/08/24 09:27:18;;;;;;;7.77;3.17;;;27.80;1.00;;;;;;5117102;28;20185;-55
2023/08/24 09:29:51;;;;;;;10.03;3.40;;;27.30;1.00;;;;;;5116848;28;20181;-52
2023/08/24 09:32:33;;;;;;;6.27;3.13;;;27.20;1.00;;;;;;5117354;28;20489;-55
2023/08/24 09:35:09;;;;;;;6.77;3.30;;;27.10;1.00;;;;;;5117117;28;20424;-57
2023/08/24 09:37:36;;;;;;;8.53;3.10;;;27.10;1.00;;;;;;5117294;28;20450;-56
2023/08/24 09:40:07;;;;;;;15.23;2.90;;;26.60;1.00;;;;;;5116976;28;20426;-54
2023/08/24 09:42:38;;;;;;;6.73;3.00;;;26.10;1.00;;;;;;5117335;28;20461;-56
2023/08/24 09:45:07;;;;;;;7.33;3.47;;;26.10;1.00;;;;;;5116927;28;20403;-57
2023/08/24 09:47:33;;;;;;;10.97;3.63;;;26.10;1.00;;;;;;5116620;28;20501;-54
2023/08/24 09:50:00;;;;;;;6.80;3.30;;;25.50;1.00;;;;;;5116875;28;20502;-54
2023/08/24 09:52:32;;;;;;;11.83;3.50;;;25.00;1.00;;;;;;5117067;28;20227;-54
2023/08/24 09:55:04;;;;;;;8.90;3.93;;;25.10;1.00;;;;;;5116971;28;20514;-56
2023/08/24 09:57:31;;;;;;;6.03;3.77;;;25.30;1.00;;;;;;5116764;28;20536;-56
2023/08/24 09:59:57;;;;;;;8.30;3.77;;;25.30;1.00;;;;;;5116237;28;20425;-53
2023/08/24 10:02:26;;;;;;;7.37;3.60;;;25.20;1.00;;;;;;5116937;28;20446;-53
2023/08/24 10:04:53;;;;;;;7.50;3.67;;;25.40;1.00;;;;;;5116632;28;20454;-53
2023/08/24 10:07:22;;;;;;;6.97;4.00;;;25.50;1.00;;;;;;5116818;28;20433;-53
2023/08/24 10:10:08;;;;;;;10.90;3.60;;;25.80;1.00;;;;;;5116517;28;20423;-52
2023/08/24 10:12:43;;;;;;;9.73;3.80;;;26.10;1.00;;;;;;5116750;28;20406;-53
2023/08/24 10:15:11;;;;;;;7.00;3.90;;;26.50;1.00;;;;;;5116647;28;20850;-53
2023/08/24 10:17:39;;;;;;;8.27;4.10;;;26.70;1.00;;;;;;5116150;28;20569;-53
2023/08/24 10:20:08;;;;;;;10.27;3.80;;;26.90;1.00;;;;;;5115610;28;20431;-53
2023/08/24 10:22:35;;;;;;;10.07;4.03;;;27.00;1.00;;;;;;5116387;28;20466;-52
2023/08/24 10:25:02;;;;;;;7.40;3.73;;;27.00;1.00;;;;;;5116164;28;20430;-53
2023/08/24 10:27:28;;;;;;;9.03;3.53;;;27.40;1.00;;;;;;5115250;28;20433;-53
2023/08/24 10:29:53;;;;;;;5.07;3.03;;;27.50;1.00;;;;;;5114752;28;20417;-53
2023/08/24 10:32:21;;;;;;;6.50;3.00;;;27.70;1.00;;;;;;5115200;28;20419;-54
2023/08/24 10:34:47;;;;;;;6.33;3.40;;;27.90;1.00;;;;;;5116085;28;20187;-53
2023/08/24 10:37:12;;;;;;;6.53;2.90;;;28.60;1.00;;;;;;5115610;28;20540;-53
2023/08/24 10:39:45;;;;;;;9.77;3.57;;;29.00;1.00;;;;;;5114463;28;20521;-53
2023/08/24 10:42:12;;;;;;;12.80;3.60;;;29.40;1.00;;;;;;5115089;28;20252;-54
2023/08/24 10:44:39;;;;;;;10.33;4.00;;;29.80;1.00;;;;;;5115244;28;20415;-54
2023/08/24 10:47:15;;;;;;;5.93;3.10;;;30.00;1.00;;;;;;5115857;28;20414;-54
2023/08/24 10:49:54;;;;;;;3.53;3.23;;;30.30;1.00;;;;;;5115354;28;20414;-54
2023/08/24 10:52:35;;;;;;;9.10;3.60;;;30.50;1.00;;;;;;5115775;28;20399;-54
2023/08/24 10:55:03;;;;;;;6.63;3.50;;;31.00;1.00;;;;;;5115707;28;20403;-54
2023/08/24 10:57:41;;;;;;;6.10;2.93;;;31.50;1.00;;;;;;5115467;28;20537;-54
2023/08/24 11:00:12;;;;;;;6.87;3.17;;;31.90;1.00;;;;;;5115428;28;20467;-55
2023/08/24 11:02:44;;;;;;;7.87;3.70;;;32.10;1.00;;;;;;5115031;28;20403;-55
2023/08/24 11:05:30;;;;;;;6.03;4.03;;;32.40;1.00;;;;;;5115229;28;20837;-56
2023/08/24 11:08:01;;;;;;;9.53;3.93;;;32.70;1.00;;;;;;5114675;28;20463;-55
2023/08/24 11:10:42;;;;;;;7.53;3.70;;;32.40;1.00;;;;;;5114928;28;20422;-56
2023/08/24 11:13:22;;;;;;;12.13;3.67;;;32.20;1.00;;;;;;5114943;28;20418;-56
2023/08/24 11:15:54;;;;;;;6.53;3.13;;;31.80;1.00;;;;;;5115368;28;20753;-55
2023/08/24 11:18:24;;;;;;;5.73;3.20;;;31.30;1.00;;;;;;5115025;28;20470;-55
2023/08/24 11:20:59;;;;;;;7.33;3.67;;;31.10;1.00;;;;;;5113525;28;20441;-55
2023/08/24 11:23:26;;;;;;;6.80;3.43;;;31.40;1.00;;;;;;5113526;28;20473;-55
2023/08/24 11:25:56;;;;;;;7.80;3.37;;;31.50;1.00;;;;;;5113647;28;20414;-54
2023/08/24 11:28:22;;;;;;;6.43;2.93;;;31.50;1.00;;;;;;5094932;28;20419;-55
2023/08/24 11:30:48;;;;;;;4.53;3.00;;;31.60;1.00;;;;;;5113383;28;20415;-54
2023/08/24 11:33:14;;;;;;;4.47;3.00;;;31.40;1.00;;;;;;5112785;28;20430;-55
2023/08/24 11:35:42;;;;;;;11.33;3.70;;;31.10;1.00;;;;;;5114441;28;20196;-55
2023/08/24 11:38:07;;;;;;;5.27;2.70;;;31.00;1.00;;;;;;5114409;28;20202;-53
2023/08/24 11:40:33;;;;;;;8.10;3.10;;;31.00;1.00;;;;;;5114589;28;20766;-54
2023/08/24 11:42:59;;;;;;;5.10;3.20;;;31.20;1.00;;;;;;5114268;28;20276;-55
2023/08/24 11:45:32;;;;;;;5.70;3.40;;;31.60;1.00;;;;;;5114395;28;20532;-55
2023/08/24 11:48:02;;;;;;;7.30;3.23;;;31.80;1.00;;;;;;5114488;28;20448;-54
2023/08/24 11:50:28;;;;;;;5.60;3.10;;;31.90;1.00;;;;;;5114387;28;20891;-55
2023/08/24 11:52:55;;;;;;;7.50;3.00;;;32.10;1.00;;;;;;5114554;28;20463;-54
2023/08/24 11:55:22;;;;;;;7.53;3.60;;;32.20;99.90;;;;;;5114224;28;20871;-54
2023/08/24 11:57:47;;;;;;;7.47;3.13;;;32.10;99.90;;;;;;5113881;28;20466;-53
2023/08/24 12:00:14;;;;;;;7.50;3.67;;;31.90;99.90;;;;;;5113993;28;20762;-53
2023/08/24 12:02:41;;;;;;;5.37;3.57;;;31.70;99.90;;;;;;5114154;28;20595;-54
2023/08/24 12:05:07;;;;;;;8.43;3.60;;;31.40;99.90;;;;;;5113828;28;20841;-53
2023/08/24 12:07:34;;;;;;;6.63;4.53;;;31.30;99.90;;;;;;5114099;28;20415;-53
2023/08/24 12:10:02;;;;;;;6.87;3.60;;;31.30;99.90;;;;;;5114118;28;20406;-54
2023/08/24 12:12:28;;;;;;;7.00;3.90;;;31.40;99.90;;;;;;5113774;28;20470;-53
2023/08/24 12:14:57;;;;;;;5.00;3.83;;;31.40;99.90;;;;;;5113934;28;20849;-53
2023/08/24 12:17:23;;;;;;;8.30;3.50;;;31.60;99.90;;;;;;5114070;28;20205;-54
2023/08/24 12:20:00;;;;;;;7.03;4.20;;;31.90;99.90;;;;;;5113847;28;20444;-54
2023/08/24 12:22:26;;;;;;;5.80;3.67;;;32.20;99.90;;;;;;5113885;28;20466;-53
2023/08/24 12:24:51;;;;;;;7.67;4.03;;;32.40;99.90;;;;;;5113988;28;20497;-54
2023/08/24 12:27:18;;;;;;;6.20;3.13;;;32.50;99.90;;;;;;5113754;28;20625;-53
2023/08/24 12:29:47;;;;;;;6.30;4.27;;;32.70;99.90;;;;;;5113626;28;20645;-53
2023/08/24 12:32:15;;;;;;;6.57;3.33;;;32.60;99.90;;;;;;5113658;28;20905;-53
2023/08/24 12:34:41;;;;;;;5.80;3.80;;;32.40;99.90;;;;;;5113765;28;20457;-54
2023/08/24 12:37:06;;;;;;;6.07;4.07;;;32.20;99.90;;;;;;5113442;28;20957;-54
2023/08/24 12:39:41;;;;;;;7.00;3.83;;;31.80;99.90;;;;;;5113335;28;20180;-53
2023/08/24 12:42:06;;;;;;;6.63;3.70;;;31.30;99.90;;;;;;5113572;28;20189;-53
2023/08/24 12:44:32;;;;;;;9.43;4.90;;;30.90;99.90;;;;;;5119988;28;20421;-51
2023/08/24 12:47:02;;;;;;;7.90;3.70;;;30.70;99.90;;;;;;5120149;28;20617;-52
2023/08/24 12:49:28;;;;;;;8.73;3.33;;;30.30;99.90;;;;;;5120315;28;20474;-51